createdAt,value
2019-03-04T00:06:52.119Z,96838.44
2019-03-04T00:13:32.308Z,96836.76
2019-03-04T00:19:58.444Z,96846.27
2019-03-04T00:25:51.744Z,96838.87
2019-03-04T00:32:17.464Z,96840.84
2019-03-04T00:38:56.714Z,96847.55
2019-03-04T00:45:33.641Z,96845.94
2019-03-04T00:52:01.484Z,96849.09
2019-03-04T00:58:29.976Z,96856.46
2019-03-04T01:08:45.208Z,96856.96
2019-03-04T01:15:29.081Z,96835.25
2019-03-04T01:21:55.241Z,96831.63
2019-03-04T01:28:23.086Z,96817.70
2019-03-04T01:34:55.974Z,96816.09
2019-03-04T01:41:36.942Z,96806.71
2019-03-04T01:48:02.765Z,96792.84
2019-03-04T01:54:28.348Z,96792.57
2019-03-04T02:01:05.510Z,96753.65
2019-03-04T02:10:55.354Z,96746.69
2019-03-04T02:17:20.937Z,96706.13
2019-03-04T02:23:50.885Z,96652.64
2019-03-04T02:30:23.702Z,96635.36
2019-03-04T02:37:00.617Z,96598.43
2019-03-04T02:43:28.095Z,96581.83
2019-03-04T02:49:53.504Z,96580.94
2019-03-04T02:56:29.217Z,96548.59
2019-03-04T03:02:55.885Z,96556.80
2019-03-04T03:12:58.013Z,96586.68
2019-03-04T03:19:24.677Z,96579.52
2019-03-04T03:25:17.533Z,96587.56
2019-03-04T03:31:54.261Z,96570.39
2019-03-04T03:38:21.747Z,96551.75
2019-03-04T03:44:47.112Z,96542.31
2019-03-04T03:51:24.914Z,96528.82
2019-03-04T03:57:55.924Z,96492.21
2019-03-04T04:04:21.529Z,96462.45
2019-03-04T04:14:24.473Z,96445.58
2019-03-04T04:20:50.323Z,96446.41
2019-03-04T04:26:55.142Z,96432.59
2019-03-04T04:33:22.773Z,96423.81
2019-03-04T04:39:50.667Z,96389.63
2019-03-04T04:46:15.634Z,96367.48
2019-03-04T04:52:56.309Z,96375.45
2019-03-04T04:59:27.479Z,96330.52
2019-03-04T05:05:59.051Z,96334.17
2019-03-04T05:16:15.099Z,96310.95
2019-03-04T05:22:54.401Z,96313.21
2019-03-04T05:29:20.219Z,96326.55
2019-03-04T05:35:48.063Z,96368.58
2019-03-04T05:42:24.996Z,96303.87
2019-03-04T05:48:50.565Z,96300.12
2019-03-04T05:55:19.286Z,96256.38
2019-03-04T06:01:51.541Z,96226.20
2019-03-04T06:08:28.472Z,96173.08
2019-03-04T06:18:30.370Z,96213.08
2019-03-04T06:24:57.265Z,96176.45
2019-03-04T06:31:22.828Z,96102.37
2019-03-04T06:38:00.012Z,96148.54
2019-03-04T06:44:25.846Z,96152.34
2019-03-04T06:51:01.676Z,96138.11
2019-03-04T06:57:45.552Z,96152.89
2019-03-04T07:04:23.275Z,96134.95
2019-03-04T07:10:51.179Z,96142.98
2019-03-04T07:21:06.624Z,96134.34
2019-03-04T07:26:56.081Z,96120.85
2019-03-04T07:33:35.032Z,96137.47
2019-03-04T07:40:00.604Z,96154.07
2019-03-04T07:46:27.278Z,96134.77
2019-03-04T07:53:01.593Z,96169.39
2019-03-04T07:56:35.698Z,96201.17
2019-03-04T08:03:02.533Z,96225.41
2019-03-04T08:10:13.529Z,96275.36
2019-03-04T08:16:52.757Z,96260.20
2019-03-04T08:19:49.509Z,96274.46
2019-03-04T08:25:37.952Z,96270.94
2019-03-04T08:32:03.793Z,96276.91
2019-03-04T08:38:40.706Z,96277.58
2019-03-04T08:47:41.848Z,96308.43
2019-03-04T08:50:14.334Z,96327.91
2019-03-04T08:52:44.916Z,96327.71
2019-03-04T08:55:18.766Z,96325.81
2019-03-04T08:57:49.263Z,96325.52
2019-03-04T09:00:27.587Z,96332.82
2019-03-04T09:02:58.311Z,96346.08
2019-03-04T09:05:30.167Z,96347.88
2019-03-04T09:08:00.785Z,96330.21
2019-03-04T09:10:31.962Z,96332.58
2019-03-04T09:13:02.644Z,96321.04
2019-03-04T09:15:33.408Z,96320.80
2019-03-04T09:18:07.459Z,96329.72
2019-03-04T09:20:38.008Z,96327.76
2019-03-04T09:23:08.559Z,96317.38
2019-03-04T09:25:49.697Z,96331.92
2019-03-04T09:28:20.305Z,96320.23
2019-03-04T09:30:53.883Z,96335.49
2019-03-04T09:33:24.482Z,96323.59
2019-03-04T09:35:55.011Z,96314.08
2019-03-04T09:38:25.614Z,96309.77
2019-03-04T09:40:56.165Z,96294.22
2019-03-04T09:43:28.001Z,96271.57
2019-03-04T09:45:58.635Z,96281.98
2019-03-04T09:48:29.177Z,96273.17
2019-03-04T09:50:59.777Z,96280.05
2019-03-04T09:53:39.112Z,96269.14
2019-03-04T09:56:02.648Z,96272.05
2019-03-04T09:58:33.205Z,96266.48
2019-03-04T10:01:32.072Z,96267.78
2019-03-04T10:05:00.294Z,96275.95
2019-03-04T10:08:32.811Z,96280.89
2019-03-04T10:11:47.639Z,96301.47
2019-03-04T10:15:12.343Z,96309.52
2019-03-04T10:17:56.155Z,96303.77
2019-03-04T10:21:14.231Z,96286.67
2019-03-04T10:24:42.499Z,96277.69
2019-03-04T10:28:07.537Z,96292.55
2019-03-04T10:31:32.569Z,96287.52
2019-03-04T10:34:33.926Z,96274.61
2019-03-04T10:37:43.263Z,96260.36
2019-03-04T10:41:15.197Z,96260.78
2019-03-04T10:45:08.400Z,96257.81
2019-03-04T10:47:38.978Z,96270.50
2019-03-04T10:50:10.551Z,96272.70
2019-03-04T10:52:41.149Z,96278.88
2019-03-04T10:55:12.493Z,96263.17
2019-03-04T10:57:45.171Z,96256.80
2019-03-04T11:00:18.718Z,96263.72
2019-03-04T11:02:49.330Z,96261.70
2019-03-04T11:05:20.915Z,96250.34
2019-03-04T11:07:51.514Z,96241.59
2019-03-04T11:10:25.255Z,96244.83
2019-03-04T11:12:55.823Z,96255.98
2019-03-04T11:15:26.681Z,96257.89
2019-03-04T11:17:57.235Z,96268.63
2019-03-04T11:20:27.785Z,96275.33
2019-03-04T11:22:58.374Z,96299.33
2019-03-04T11:25:29.025Z,96302.89
2019-03-04T11:28:01.953Z,96275.97
2019-03-04T11:30:32.944Z,96270.61
2019-03-04T11:33:03.526Z,96257.41
2019-03-04T11:35:37.182Z,96257.83
2019-03-04T11:38:28.475Z,96248.03
2019-03-04T11:41:00.232Z,96227.41
2019-03-04T11:43:31.855Z,96237.22
2019-03-04T11:46:02.414Z,96219.64
2019-03-04T11:48:32.955Z,96237.29
2019-03-04T11:51:03.587Z,96259.28
2019-03-04T11:53:34.156Z,96251.92
2019-03-04T11:56:04.858Z,96245.45
2019-03-04T11:58:36.689Z,96236.89
2019-03-04T12:01:14.218Z,96231.09
2019-03-04T12:03:44.796Z,96211.84
2019-03-04T12:06:15.388Z,96216.39
2019-03-04T12:08:45.967Z,96222.75
2019-03-04T12:11:16.517Z,96261.97
2019-03-04T12:13:47.070Z,96279.11
2019-03-04T12:16:17.657Z,96270.64
2019-03-04T12:18:49.545Z,96265.55
2019-03-04T12:21:20.202Z,96277.06
2019-03-04T12:23:50.754Z,96280.99
2019-03-04T12:26:21.381Z,96287.63
2019-03-04T12:28:52.024Z,96271.08
2019-03-04T12:31:29.533Z,96254.82
2019-03-04T12:34:00.072Z,96242.60
2019-03-04T12:36:30.627Z,96240.39
2019-03-04T12:39:01.157Z,96242.67
2019-03-04T12:41:31.748Z,96229.00
2019-03-04T12:44:02.278Z,96232.17
2019-03-04T12:46:32.849Z,96233.88
2019-03-04T12:49:03.370Z,96249.59
2019-03-04T12:51:33.979Z,96269.04
2019-03-04T12:54:04.577Z,96255.55
2019-03-04T12:56:35.178Z,96261.32
2019-03-04T12:59:05.791Z,96260.63
2019-03-04T13:01:36.380Z,96292.45
2019-03-04T13:04:06.955Z,96282.72
2019-03-04T13:06:37.551Z,96266.41
2019-03-04T13:09:14.524Z,96278.88
2019-03-04T13:11:42.056Z,96286.94
2019-03-04T13:14:12.609Z,96320.89
2019-03-04T13:16:43.168Z,96319.59
2019-03-04T13:19:13.743Z,96325.54
2019-03-04T13:21:44.408Z,96326.98
2019-03-04T13:24:15.018Z,96313.95
2019-03-04T13:26:45.611Z,96324.17
2019-03-04T13:29:16.209Z,96332.79
2019-03-04T13:31:46.832Z,96320.48
2019-03-04T13:34:17.418Z,96324.59
2019-03-04T13:36:48.005Z,96319.17
2019-03-04T13:39:18.575Z,96317.70
2019-03-04T13:41:49.172Z,96293.66
2019-03-04T13:44:19.726Z,96281.64
2019-03-04T13:46:50.278Z,96258.72
2019-03-04T13:49:20.829Z,96257.83
2019-03-04T13:51:52.895Z,96263.95
2019-03-04T13:54:23.380Z,96277.94
2019-03-04T13:56:53.973Z,96297.05
2019-03-04T13:59:24.510Z,96316.62
2019-03-04T14:01:55.145Z,96319.44
2019-03-04T14:04:25.676Z,96346.97
2019-03-04T14:06:56.277Z,96369.97
2019-03-04T14:09:26.857Z,96413.16
2019-03-04T14:11:59.855Z,96425.00
2019-03-04T14:14:30.535Z,96435.53
2019-03-04T14:17:01.390Z,96433.78
2019-03-04T14:19:31.954Z,96426.60
2019-03-04T14:22:02.560Z,96442.71
2019-03-04T14:24:33.088Z,96458.11
2019-03-04T14:27:03.670Z,96474.03
2019-03-04T14:29:34.271Z,96490.77
2019-03-04T14:32:07.063Z,96515.21
2019-03-04T14:34:37.199Z,96511.41
2019-03-04T14:37:07.791Z,96524.45
2019-03-04T14:39:38.404Z,96516.98
2019-03-04T14:42:09.000Z,96513.33
2019-03-04T14:44:39.536Z,96521.74
2019-03-04T14:47:10.109Z,96538.40
2019-03-04T14:49:44.839Z,96521.61
2019-03-04T14:52:12.930Z,96518.98
2019-03-04T14:54:43.541Z,96533.14
2019-03-04T14:57:14.305Z,96535.52
2019-03-04T14:59:44.826Z,96543.36
2019-03-04T15:02:17.278Z,96551.05
2019-03-04T15:04:47.844Z,96559.85
2019-03-04T15:07:18.402Z,96569.66
2019-03-04T15:09:50.123Z,96582.33
2019-03-04T15:12:20.705Z,96590.52
2019-03-04T15:14:51.294Z,96594.63
2019-03-04T15:17:28.875Z,96618.37
2019-03-04T15:20:08.946Z,96628.50
2019-03-04T15:22:34.763Z,96638.38
2019-03-04T15:25:04.430Z,96634.88
2019-03-04T15:27:35.040Z,96649.48
2019-03-04T15:30:06.473Z,96661.61
2019-03-04T15:32:37.063Z,96655.52
2019-03-04T15:35:08.003Z,96666.73
2019-03-04T15:37:38.618Z,96677.94
2019-03-04T15:40:09.494Z,96688.33
2019-03-04T15:42:40.081Z,96684.73
2019-03-04T15:45:11.441Z,96690.05
2019-03-04T15:47:42.095Z,96696.25
2019-03-04T15:50:12.748Z,96706.96
2019-03-04T15:52:45.214Z,96703.67
2019-03-04T15:55:15.733Z,96710.86
2019-03-04T15:57:48.690Z,96717.97
2019-03-04T16:00:19.035Z,96718.98
2019-03-04T16:02:49.812Z,96717.17
2019-03-04T16:05:20.403Z,96710.36
2019-03-04T16:07:51.059Z,96710.67
2019-03-04T16:10:22.673Z,96722.78
2019-03-04T16:12:53.363Z,96721.36
2019-03-04T16:15:25.511Z,96729.69
2019-03-04T16:17:56.726Z,96732.38
2019-03-04T16:20:27.272Z,96740.28
2019-03-04T16:23:01.231Z,96739.78
2019-03-04T16:25:32.197Z,96757.38
2019-03-04T16:28:16.162Z,96755.19
2019-03-04T16:30:49.995Z,96758.98
2019-03-04T16:33:24.818Z,96768.50
2019-03-04T16:35:57.655Z,96773.80
2019-03-04T16:38:28.172Z,96788.01
2019-03-04T16:41:00.833Z,96792.22
2019-03-04T16:43:31.473Z,96786.80
2019-03-04T16:46:02.038Z,96796.70
2019-03-04T16:48:32.626Z,96799.09
2019-03-04T16:51:03.172Z,96805.39
2019-03-04T16:53:33.833Z,96807.59
2019-03-04T16:56:04.460Z,96811.59
2019-03-04T16:58:35.026Z,96814.89
2019-03-04T17:01:06.180Z,96816.69
2019-03-04T17:03:36.776Z,96824.98
2019-03-04T17:06:07.433Z,96822.97
2019-03-04T17:08:37.989Z,96822.55
2019-03-04T17:11:08.542Z,96817.57
2019-03-04T17:13:39.133Z,96824.65
2019-03-04T17:16:09.666Z,96831.55
2019-03-04T17:18:40.224Z,96838.22
2019-03-04T17:21:10.806Z,96838.04
2019-03-04T17:23:41.368Z,96853.64
2019-03-04T17:26:17.356Z,96847.14
2019-03-04T17:28:49.302Z,96857.62
2019-03-04T17:31:19.926Z,96867.81
2019-03-04T17:33:50.540Z,96862.22
2019-03-04T17:36:21.112Z,96863.11
2019-03-04T17:38:53.003Z,96866.52
2019-03-04T17:41:26.791Z,96874.98
2019-03-04T17:43:57.396Z,96885.28
2019-03-04T17:46:27.947Z,96888.84
2019-03-04T17:48:58.524Z,96891.54
2019-03-04T17:51:29.036Z,96896.95
2019-03-04T17:53:59.695Z,96896.64
2019-03-04T17:56:32.410Z,96903.03
2019-03-04T17:59:02.953Z,96903.91
2019-03-04T18:01:33.535Z,96916.17
2019-03-04T18:04:04.162Z,96915.36
2019-03-04T18:06:36.450Z,96927.30
2019-03-04T18:09:08.773Z,96925.89
2019-03-04T18:11:39.465Z,96926.98
2019-03-04T18:14:10.533Z,96927.89
2019-03-04T18:16:41.155Z,96934.39
2019-03-04T18:19:12.180Z,96936.81
2019-03-04T18:21:42.757Z,96934.39
2019-03-04T18:24:13.318Z,96932.00
2019-03-04T18:27:05.271Z,96933.48
2019-03-04T18:30:24.594Z,96937.37
2019-03-04T18:33:57.223Z,96949.77
2019-03-04T18:37:20.595Z,96947.98
2019-03-04T18:41:18.368Z,96954.55
2019-03-04T18:44:29.667Z,96954.72
2019-03-04T18:47:53.932Z,96956.61
2019-03-04T18:50:24.622Z,96963.11
2019-03-04T18:52:55.212Z,96967.29
2019-03-04T18:55:25.817Z,96969.46
2019-03-04T18:57:56.419Z,96970.61
2019-03-04T19:00:27.818Z,96974.13
2019-03-04T19:02:58.417Z,96969.63
2019-03-04T19:05:28.965Z,96974.82
2019-03-04T19:07:59.560Z,96980.30
2019-03-04T19:10:33.293Z,96968.61
2019-03-04T19:13:04.827Z,96973.31
2019-03-04T19:15:35.467Z,96967.80
2019-03-04T19:18:06.057Z,96974.88
2019-03-04T19:20:36.649Z,96980.02
2019-03-04T19:23:07.294Z,96979.70
2019-03-04T19:25:37.892Z,96977.48
2019-03-04T19:28:11.434Z,96982.05
2019-03-04T19:30:46.473Z,96988.42
2019-03-04T19:33:19.055Z,96991.20
2019-03-04T19:35:49.779Z,96979.29
2019-03-04T19:38:20.340Z,96988.99
2019-03-04T19:40:53.781Z,96986.83
2019-03-04T19:43:32.842Z,96997.09
2019-03-04T19:46:00.145Z,96993.41
2019-03-04T19:48:33.490Z,96992.11
2019-03-04T19:51:13.899Z,96988.81
2019-03-04T19:53:46.990Z,96994.94
2019-03-04T19:56:17.583Z,96986.09
2019-03-04T19:58:50.879Z,96991.58
2019-03-04T20:01:25.774Z,96988.00
2019-03-04T20:03:58.470Z,96985.29
2019-03-04T20:06:29.261Z,96994.81
2019-03-04T20:09:03.415Z,96991.83
2019-03-04T20:11:37.550Z,96999.18
2019-03-04T20:14:09.771Z,97008.94
2019-03-04T20:16:40.406Z,97004.00
2019-03-04T20:19:11.042Z,97012.77
2019-03-04T20:21:44.933Z,97005.78
2019-03-04T20:24:23.647Z,97013.58
2019-03-04T20:26:55.401Z,97018.41
2019-03-04T20:29:26.047Z,97021.06
2019-03-04T20:31:59.546Z,97024.04
2019-03-04T20:34:32.595Z,97028.37
2019-03-04T20:37:04.226Z,97027.77
2019-03-04T20:39:37.240Z,97023.81
2019-03-04T20:42:07.863Z,97020.63
2019-03-04T20:44:38.514Z,97021.44
2019-03-04T20:47:11.763Z,97024.84
2019-03-04T20:49:42.316Z,97024.41
2019-03-04T20:52:16.101Z,97036.73
2019-03-04T20:54:46.746Z,97049.72
2019-03-04T20:57:17.380Z,97061.41
2019-03-04T20:59:47.955Z,97060.17
2019-03-04T21:02:26.764Z,97061.09
2019-03-04T21:04:59.151Z,97060.77
2019-03-04T21:07:29.726Z,97065.59
2019-03-04T21:10:04.246Z,97069.69
2019-03-04T21:12:36.054Z,97068.39
2019-03-04T21:15:07.786Z,97085.50
2019-03-04T21:17:38.651Z,97085.27
2019-03-04T21:20:10.006Z,97099.66
2019-03-04T21:22:40.750Z,97106.70
2019-03-04T21:25:44.209Z,97109.87
2019-03-04T21:28:26.874Z,97097.49
2019-03-04T21:31:41.293Z,97105.11
2019-03-04T21:35:11.117Z,97111.53
2019-03-04T21:37:45.626Z,97112.31
2019-03-04T21:40:42.351Z,97112.52
2019-03-04T21:43:23.692Z,97111.70
2019-03-04T21:46:35.286Z,97116.39
2019-03-04T21:49:13.065Z,97116.83
2019-03-04T21:52:50.998Z,97119.55
2019-03-04T21:55:46.011Z,97124.08
2019-03-04T21:58:16.603Z,97134.07
2019-03-04T22:00:55.950Z,97132.65
2019-03-04T22:03:31.201Z,97141.53
2019-03-04T22:06:01.773Z,97147.41
2019-03-04T22:08:33.850Z,97139.19
2019-03-04T22:11:04.947Z,97135.46
2019-03-04T22:13:35.518Z,97132.33
2019-03-04T22:16:06.122Z,97138.38
2019-03-04T22:18:36.756Z,97145.72
2019-03-04T22:21:16.289Z,97143.73
2019-03-04T22:23:39.695Z,97145.08
2019-03-04T22:26:10.258Z,97143.13
2019-03-04T22:28:43.799Z,97146.90
2019-03-04T22:31:14.678Z,97149.98
2019-03-04T22:33:45.276Z,97151.77
2019-03-04T22:36:15.848Z,97143.13
2019-03-04T22:38:46.411Z,97148.27
2019-03-04T22:41:16.999Z,97161.86
2019-03-04T22:43:47.603Z,97168.63
2019-03-04T22:46:18.126Z,97167.62
2019-03-04T22:48:48.711Z,97170.16
2019-03-04T22:51:19.311Z,97186.67
2019-03-04T22:53:49.905Z,97177.09
2019-03-04T22:56:20.488Z,97181.06
2019-03-04T22:58:51.033Z,97192.58
2019-03-04T23:01:41.541Z,97185.60
2019-03-04T23:05:21.206Z,97188.20
2019-03-04T23:07:56.734Z,97186.90
2019-03-04T23:10:42.927Z,97203.78
2019-03-04T23:13:37.442Z,97200.38
2019-03-04T23:16:09.524Z,97198.22
2019-03-04T23:18:40.128Z,97213.11
2019-03-04T23:21:13.477Z,97211.97
2019-03-04T23:23:44.015Z,97216.34
2019-03-04T23:26:14.639Z,97215.86
2019-03-04T23:28:45.182Z,97204.95
2019-03-04T23:31:15.834Z,97201.20
2019-03-04T23:33:46.424Z,97209.86
2019-03-04T23:36:17.022Z,97204.41
2019-03-04T23:38:47.552Z,97208.62
2019-03-04T23:41:18.084Z,97204.09
2019-03-04T23:43:48.657Z,97206.40
2019-03-04T23:46:19.226Z,97209.17
2019-03-04T23:48:49.822Z,97205.16
2019-03-04T23:51:23.207Z,97205.36
2019-03-04T23:53:53.804Z,97205.69
2019-03-04T23:56:24.324Z,97204.44
2019-03-04T23:58:54.911Z,97208.65
